sensor_id;sensor_type;location;lat;lon;timestamp;P1;P2;P0
24012;PMS7003;12220;50.194;18.948;2024-01-07T00:01:56;21;16;11
24012;PMS7003;12220;50.194;18.948;2024-01-07T00:03:57;30;25;13
24012;PMS7003;12220;50.194;18.948;2024-01-07T00:05:59;24;22;14
24012;PMS7003;12220;50.194;18.948;2024-01-07T00:08:13;29;24;12
24012;PMS7003;12220;50.194;18.948;2024-01-07T00:10:14;30;25;15
24012;PMS7003;12220;50.194;18.948;2024-01-07T00:12:16;20;19;13
24012;PMS7003;12220;50.194;18.948;2024-01-07T00:14:20;23;21;11
24012;PMS7003;12220;50.194;18.948;2024-01-07T00:16:25;16;14;10
24012;PMS7003;12220;50.194;18.948;2024-01-07T00:18:26;24;21;15
24012;PMS7003;12220;50.194;18.948;2024-01-07T00:20:28;23;21;14
24012;PMS7003;12220;50.194;18.948;2024-01-07T00:22:30;22;21;13
24012;PMS7003;12220;50.194;18.948;2024-01-07T00:24:40;19;17;11
24012;PMS7003;12220;50.194;18.948;2024-01-07T00:26:42;19;15;13
24012;PMS7003;12220;50.194;18.948;2024-01-07T00:28:43;19;18;10
24012;PMS7003;12220;50.194;18.948;2024-01-07T00:30:44;29;20;13
24012;PMS7003;12220;50.194;18.948;2024-01-07T00:32:55;25;22;13
24012;PMS7003;12220;50.194;18.948;2024-01-07T00:34:57;27;24;14
24012;PMS7003;12220;50.194;18.948;2024-01-07T00:36:58;37;32;18
24012;PMS7003;12220;50.194;18.948;2024-01-07T00:38:59;22;21;14
24012;PMS7003;12220;50.194;18.948;2024-01-07T00:41:10;33;25;15
24012;PMS7003;12220;50.194;18.948;2024-01-07T00:43:13;26;21;18
24012;PMS7003;12220;50.194;18.948;2024-01-07T00:45:14;28;23;14
24012;PMS7003;12220;50.194;18.948;2024-01-07T00:47:16;26;24;15
24012;PMS7003;12220;50.194;18.948;2024-01-07T00:49:26;15;13;12
24012;PMS7003;12220;50.194;18.948;2024-01-07T00:51:28;26;22;12
24012;PMS7003;12220;50.194;18.948;2024-01-07T00:53:30;23;21;14
24012;PMS7003;12220;50.194;18.948;2024-01-07T00:55:31;17;17;9
24012;PMS7003;12220;50.194;18.948;2024-01-07T00:57:41;19;19;14
24012;PMS7003;12220;50.194;18.948;2024-01-07T00:59:42;18;17;12
24012;PMS7003;12220;50.194;18.948;2024-01-07T01:01:44;19;18;13
24012;PMS7003;12220;50.194;18.948;2024-01-07T01:03:45;23;17;9
24012;PMS7003;12220;50.194;18.948;2024-01-07T01:05:57;31;23;10
24012;PMS7003;12220;50.194;18.948;2024-01-07T01:07:58;18;16;8
24012;PMS7003;12220;50.194;18.948;2024-01-07T01:10:00;24;20;13
24012;PMS7003;12220;50.194;18.948;2024-01-07T01:12:01;21;18;10
24012;PMS7003;12220;50.194;18.948;2024-01-07T01:14:11;20;17;11
24012;PMS7003;12220;50.194;18.948;2024-01-07T01:16:12;20;18;12
24012;PMS7003;12220;50.194;18.948;2024-01-07T01:18:14;19;16;10
24012;PMS7003;12220;50.194;18.948;2024-01-07T01:20:15;21;15;13
24012;PMS7003;12220;50.194;18.948;2024-01-07T01:22:26;17;16;11
24012;PMS7003;12220;50.194;18.948;2024-01-07T01:24:27;24;18;11
24012;PMS7003;12220;50.194;18.948;2024-01-07T01:26:29;15;13;7
24012;PMS7003;12220;50.194;18.948;2024-01-07T01:28:30;20;14;9
24012;PMS7003;12220;50.194;18.948;2024-01-07T01:30:41;18;14;12
24012;PMS7003;12220;50.194;18.948;2024-01-07T01:32:43;12;11;7
24012;PMS7003;12220;50.194;18.948;2024-01-07T01:34:45;27;17;10
24012;PMS7003;12220;50.194;18.948;2024-01-07T01:36:46;21;17;11
24012;PMS7003;12220;50.194;18.948;2024-01-07T01:38:56;26;22;13
24012;PMS7003;12220;50.194;18.948;2024-01-07T01:40:58;16;14;10
24012;PMS7003;12220;50.194;18.948;2024-01-07T01:42:59;17;14;12
24012;PMS7003;12220;50.194;18.948;2024-01-07T01:45:01;22;18;12
24012;PMS7003;12220;50.194;18.948;2024-01-07T01:47:12;20;15;9
24012;PMS7003;12220;50.194;18.948;2024-01-07T01:49:16;14;14;10
24012;PMS7003;12220;50.194;18.948;2024-01-07T01:51:18;22;19;12
24012;PMS7003;12220;50.194;18.948;2024-01-07T01:53:19;25;18;11
24012;PMS7003;12220;50.194;18.948;2024-01-07T01:55:27;20;18;11
24012;PMS7003;12220;50.194;18.948;2024-01-07T01:59:37;23;20;11
24012;PMS7003;12220;50.194;18.948;2024-01-07T02:01:39;14;12;8
24012;PMS7003;12220;50.194;18.948;2024-01-07T02:03:42;10;10;8
24012;PMS7003;12220;50.194;18.948;2024-01-07T02:05:43;15;14;7
24012;PMS7003;12220;50.194;18.948;2024-01-07T02:07:46;13;13;8
24012;PMS7003;12220;50.194;18.948;2024-01-07T02:09:48;16;12;9
24012;PMS7003;12220;50.194;18.948;2024-01-07T02:12:01;14;10;8
24012;PMS7003;12220;50.194;18.948;2024-01-07T02:14:19;12;12;9
24012;PMS7003;12220;50.194;18.948;2024-01-07T02:16:20;12;12;8
24012;PMS7003;12220;50.194;18.948;2024-01-07T02:18:21;13;11;7
24012;PMS7003;12220;50.194;18.948;2024-01-07T02:20:23;12;12;9
24012;PMS7003;12220;50.194;18.948;2024-01-07T02:22:34;13;12;8
24012;PMS7003;12220;50.194;18.948;2024-01-07T02:24:35;14;12;9
24012;PMS7003;12220;50.194;18.948;2024-01-07T02:26:37;7;7;6
24012;PMS7003;12220;50.194;18.948;2024-01-07T02:28:38;12;12;6
24012;PMS7003;12220;50.194;18.948;2024-01-07T02:30:49;10;10;7
24012;PMS7003;12220;50.194;18.948;2024-01-07T02:32:50;16;15;9
24012;PMS7003;12220;50.194;18.948;2024-01-07T02:34:52;13;9;6
24012;PMS7003;12220;50.194;18.948;2024-01-07T02:36:53;12;12;8
24012;PMS7003;12220;50.194;18.948;2024-01-07T02:39:04;10;10;7
24012;PMS7003;12220;50.194;18.948;2024-01-07T02:41:06;11;11;8
24012;PMS7003;12220;50.194;18.948;2024-01-07T02:43:07;10;9;7
24012;PMS7003;12220;50.194;18.948;2024-01-07T02:45:11;7;7;6
24012;PMS7003;12220;50.194;18.948;2024-01-07T02:47:19;12;11;8
24012;PMS7003;12220;50.194;18.948;2024-01-07T02:49:21;12;11;8
24012;PMS7003;12220;50.194;18.948;2024-01-07T02:51:22;12;9;6
24012;PMS7003;12220;50.194;18.948;2024-01-07T02:53:23;11;7;5
24012;PMS7003;12220;50.194;18.948;2024-01-07T02:55:34;11;10;8
24012;PMS7003;12220;50.194;18.948;2024-01-07T02:57:36;10;9;8
24012;PMS7003;12220;50.194;18.948;2024-01-07T02:59:37;10;7;6
24012;PMS7003;12220;50.194;18.948;2024-01-07T03:01:38;16;14;8
24012;PMS7003;12220;50.194;18.948;2024-01-07T03:03:50;10;8;6
24012;PMS7003;12220;50.194;18.948;2024-01-07T03:05:51;12;9;5
24012;PMS7003;12220;50.194;18.948;2024-01-07T03:07:52;10;7;5
24012;PMS7003;12220;50.194;18.948;2024-01-07T03:09:54;9;9;6
24012;PMS7003;12220;50.194;18.948;2024-01-07T03:12:05;9;9;6
24012;PMS7003;12220;50.194;18.948;2024-01-07T03:14:06;11;11;8
24012;PMS7003;12220;50.194;18.948;2024-01-07T03:16:07;7;7;6
24012;PMS7003;12220;50.194;18.948;2024-01-07T03:18:09;7;7;6
24012;PMS7003;12220;50.194;18.948;2024-01-07T03:20:20;16;11;7
24012;PMS7003;12220;50.194;18.948;2024-01-07T03:22:21;9;8;6
24012;PMS7003;12220;50.194;18.948;2024-01-07T03:24:25;10;6;4
24012;PMS7003;12220;50.194;18.948;2024-01-07T03:26:29;7;6;4
24012;PMS7003;12220;50.194;18.948;2024-01-07T03:28:35;10;9;7
24012;PMS7003;12220;50.194;18.948;2024-01-07T03:30:36;9;9;7
24012;PMS7003;12220;50.194;18.948;2024-01-07T03:32:38;10;7;5
24012;PMS7003;12220;50.194;18.948;2024-01-07T03:34:39;9;9;6
24012;PMS7003;12220;50.194;18.948;2024-01-07T03:36:50;8;8;6
24012;PMS7003;12220;50.194;18.948;2024-01-07T03:38:52;7;7;5
24012;PMS7003;12220;50.194;18.948;2024-01-07T03:40:54;15;10;8
24012;PMS7003;12220;50.194;18.948;2024-01-07T03:42:56;9;9;6
24012;PMS7003;12220;50.194;18.948;2024-01-07T03:45:05;9;8;6
24012;PMS7003;12220;50.194;18.948;2024-01-07T03:47:07;15;11;8
24012;PMS7003;12220;50.194;18.948;2024-01-07T03:49:08;11;6;3
24012;PMS7003;12220;50.194;18.948;2024-01-07T03:51:09;9;7;5
24012;PMS7003;12220;50.194;18.948;2024-01-07T03:53:20;12;10;6
24012;PMS7003;12220;50.194;18.948;2024-01-07T03:55:24;14;11;8
24012;PMS7003;12220;50.194;18.948;2024-01-07T03:57:25;12;10;6
24012;PMS7003;12220;50.194;18.948;2024-01-07T03:59:27;10;8;6
24012;PMS7003;12220;50.194;18.948;2024-01-07T04:01:35;7;6;4
24012;PMS7003;12220;50.194;18.948;2024-01-07T04:03:37;3;2;1
24012;PMS7003;12220;50.194;18.948;2024-01-07T04:05:39;9;6;5
24012;PMS7003;12220;50.194;18.948;2024-01-07T04:07:42;7;6;4
24012;PMS7003;12220;50.194;18.948;2024-01-07T04:09:50;12;9;7
24012;PMS7003;12220;50.194;18.948;2024-01-07T04:11:52;16;10;8
24012;PMS7003;12220;50.194;18.948;2024-01-07T04:13:53;11;9;6
24012;PMS7003;12220;50.194;18.948;2024-01-07T04:15:54;7;7;4
24012;PMS7003;12220;50.194;18.948;2024-01-07T04:18:06;21;7;5
24012;PMS7003;12220;50.194;18.948;2024-01-07T04:20:07;15;10;5
24012;PMS7003;12220;50.194;18.948;2024-01-07T04:22:09;7;7;5
24012;PMS7003;12220;50.194;18.948;2024-01-07T04:24:10;9;7;5
24012;PMS7003;12220;50.194;18.948;2024-01-07T04:26:21;12;6;4
24012;PMS7003;12220;50.194;18.948;2024-01-07T04:28:22;5;5;4
24012;PMS7003;12220;50.194;18.948;2024-01-07T04:30:24;8;7;6
24012;PMS7003;12220;50.194;18.948;2024-01-07T04:32:28;9;8;6
24012;PMS7003;12220;50.194;18.948;2024-01-07T04:34:36;6;5;4
24012;PMS7003;12220;50.194;18.948;2024-01-07T04:36:37;7;7;5
24012;PMS7003;12220;50.194;18.948;2024-01-07T04:38:38;8;6;4
24012;PMS7003;12220;50.194;18.948;2024-01-07T04:40:40;5;3;2
24012;PMS7003;12220;50.194;18.948;2024-01-07T04:42:54;8;7;4
24012;PMS7003;12220;50.194;18.948;2024-01-07T04:44:55;9;8;4
24012;PMS7003;12220;50.194;18.948;2024-01-07T04:46:58;6;4;3
24012;PMS7003;12220;50.194;18.948;2024-01-07T04:48:59;8;7;6
24012;PMS7003;12220;50.194;18.948;2024-01-07T04:51:06;6;6;5
24012;PMS7003;12220;50.194;18.948;2024-01-07T04:53:09;10;7;5
24012;PMS7003;12220;50.194;18.948;2024-01-07T04:55:13;7;7;6
24012;PMS7003;12220;50.194;18.948;2024-01-07T04:57:17;9;7;4
24012;PMS7003;12220;50.194;18.948;2024-01-07T04:59:21;8;6;5
24012;PMS7003;12220;50.194;18.948;2024-01-07T05:01:22;6;5;4
24012;PMS7003;12220;50.194;18.948;2024-01-07T05:03:24;10;6;4
24012;PMS7003;12220;50.194;18.948;2024-01-07T05:05:26;3;3;1
24012;PMS7003;12220;50.194;18.948;2024-01-07T05:07:37;9;8;6
24012;PMS7003;12220;50.194;18.948;2024-01-07T05:09:39;6;6;4
24012;PMS7003;12220;50.194;18.948;2024-01-07T05:11:40;10;8;5
24012;PMS7003;12220;50.194;18.948;2024-01-07T05:13:42;5;5;4
24012;PMS7003;12220;50.194;18.948;2024-01-07T05:15:51;4;3;2
24012;PMS7003;12220;50.194;18.948;2024-01-07T05:17:54;6;6;5
24012;PMS7003;12220;50.194;18.948;2024-01-07T05:19:56;6;5;4
24012;PMS7003;12220;50.194;18.948;2024-01-07T05:21:58;8;6;5
24012;PMS7003;12220;50.194;18.948;2024-01-07T05:24:06;9;7;5
24012;PMS7003;12220;50.194;18.948;2024-01-07T05:26:08;8;8;4
24012;PMS7003;12220;50.194;18.948;2024-01-07T05:28:10;8;6;5
24012;PMS7003;12220;50.194;18.948;2024-01-07T05:30:15;3;2;1
24012;PMS7003;12220;50.194;18.948;2024-01-07T05:32:22;7;7;5
24012;PMS7003;12220;50.194;18.948;2024-01-07T05:34:23;6;5;4
24012;PMS7003;12220;50.194;18.948;2024-01-07T05:36:24;6;5;3
24012;PMS7003;12220;50.194;18.948;2024-01-07T05:38:26;5;5;2
24012;PMS7003;12220;50.194;18.948;2024-01-07T05:40:37;16;8;5
24012;PMS7003;12220;50.194;18.948;2024-01-07T05:42:38;8;8;5
24012;PMS7003;12220;50.194;18.948;2024-01-07T05:44:39;13;8;5
24012;PMS7003;12220;50.194;18.948;2024-01-07T05:46:41;12;5;4
24012;PMS7003;12220;50.194;18.948;2024-01-07T05:48:52;3;3;2
24012;PMS7003;12220;50.194;18.948;2024-01-07T05:50:53;5;3;3
24012;PMS7003;12220;50.194;18.948;2024-01-07T05:52:55;7;7;5
24012;PMS7003;12220;50.194;18.948;2024-01-07T05:54:56;6;6;4
24012;PMS7003;12220;50.194;18.948;2024-01-07T05:57:07;8;6;5
24012;PMS7003;12220;50.194;18.948;2024-01-07T05:59:08;11;9;4
24012;PMS7003;12220;50.194;18.948;2024-01-07T06:01:18;9;7;6
24012;PMS7003;12220;50.194;18.948;2024-01-07T06:03:22;8;6;4
24012;PMS7003;12220;50.194;18.948;2024-01-07T06:05:24;6;3;2
24012;PMS7003;12220;50.194;18.948;2024-01-07T06:07:25;7;7;5
24012;PMS7003;12220;50.194;18.948;2024-01-07T06:09:30;5;5;3
24012;PMS7003;12220;50.194;18.948;2024-01-07T06:11:34;4;3;2
24012;PMS7003;12220;50.194;18.948;2024-01-07T06:13:37;9;7;5
24012;PMS7003;12220;50.194;18.948;2024-01-07T06:15:39;4;4;3
24012;PMS7003;12220;50.194;18.948;2024-01-07T06:17:40;7;6;4
24012;PMS7003;12220;50.194;18.948;2024-01-07T06:19:41;2;2;2
24012;PMS7003;12220;50.194;18.948;2024-01-07T06:21:52;11;6;5
24012;PMS7003;12220;50.194;18.948;2024-01-07T06:23:56;4;3;3
24012;PMS7003;12220;50.194;18.948;2024-01-07T06:25:58;3;1;1
24012;PMS7003;12220;50.194;18.948;2024-01-07T06:27:59;8;6;3
24012;PMS7003;12220;50.194;18.948;2024-01-07T06:30:08;7;7;5
24012;PMS7003;12220;50.194;18.948;2024-01-07T06:32:10;5;4;3
24012;PMS7003;12220;50.194;18.948;2024-01-07T06:34:11;8;6;5
24012;PMS7003;12220;50.194;18.948;2024-01-07T06:36:15;7;5;4
24012;PMS7003;12220;50.194;18.948;2024-01-07T06:38:23;3;3;2
24012;PMS7003;12220;50.194;18.948;2024-01-07T06:40:25;5;4;2
24012;PMS7003;12220;50.194;18.948;2024-01-07T06:42:29;6;5;4
24012;PMS7003;12220;50.194;18.948;2024-01-07T06:44:30;4;4;1
24012;PMS7003;12220;50.194;18.948;2024-01-07T06:46:38;7;7;5
24012;PMS7003;12220;50.194;18.948;2024-01-07T06:48:39;5;5;3
24012;PMS7003;12220;50.194;18.948;2024-01-07T06:50:40;7;6;3
24012;PMS7003;12220;50.194;18.948;2024-01-07T06:52:45;10;7;4
24012;PMS7003;12220;50.194;18.948;2024-01-07T06:54:53;8;7;5
24012;PMS7003;12220;50.194;18.948;2024-01-07T06:56:54;10;9;6
24012;PMS7003;12220;50.194;18.948;2024-01-07T06:58:58;7;5;2
24012;PMS7003;12220;50.194;18.948;2024-01-07T07:01:00;6;5;3
24012;PMS7003;12220;50.194;18.948;2024-01-07T07:03:08;10;7;5
24012;PMS7003;12220;50.194;18.948;2024-01-07T07:05:09;9;6;3
24012;PMS7003;12220;50.194;18.948;2024-01-07T07:07:11;8;6;4
24012;PMS7003;12220;50.194;18.948;2024-01-07T07:09:12;6;6;4
24012;PMS7003;12220;50.194;18.948;2024-01-07T07:11:23;9;7;5
24012;PMS7003;12220;50.194;18.948;2024-01-07T07:13:24;8;8;5
24012;PMS7003;12220;50.194;18.948;2024-01-07T07:15:26;6;5;4
24012;PMS7003;12220;50.194;18.948;2024-01-07T07:17:29;9;8;6
24012;PMS7003;12220;50.194;18.948;2024-01-07T07:19:38;10;7;5
24012;PMS7003;12220;50.194;18.948;2024-01-07T07:21:40;14;7;6
24012;PMS7003;12220;50.194;18.948;2024-01-07T07:23:45;15;6;5
24012;PMS7003;12220;50.194;18.948;2024-01-07T07:25:46;9;9;7
24012;PMS7003;12220;50.194;18.948;2024-01-07T07:27:53;9;9;7
24012;PMS7003;12220;50.194;18.948;2024-01-07T07:29:57;11;10;8
24012;PMS7003;12220;50.194;18.948;2024-01-07T07:31:58;10;7;6
24012;PMS7003;12220;50.194;18.948;2024-01-07T07:33:59;10;10;6
24012;PMS7003;12220;50.194;18.948;2024-01-07T07:36:09;7;4;4
24012;PMS7003;12220;50.194;18.948;2024-01-07T07:38:10;11;7;5
24012;PMS7003;12220;50.194;18.948;2024-01-07T07:40:12;9;7;5
24012;PMS7003;12220;50.194;18.948;2024-01-07T07:42:13;11;8;6
24012;PMS7003;12220;50.194;18.948;2024-01-07T07:44:24;10;6;5
24012;PMS7003;12220;50.194;18.948;2024-01-07T07:46:25;5;5;4
24012;PMS7003;12220;50.194;18.948;2024-01-07T07:48:26;8;8;5
24012;PMS7003;12220;50.194;18.948;2024-01-07T07:50:28;9;9;6
24012;PMS7003;12220;50.194;18.948;2024-01-07T07:52:41;12;8;6
24012;PMS7003;12220;50.194;18.948;2024-01-07T07:54:44;7;7;5
24012;PMS7003;12220;50.194;18.948;2024-01-07T07:56:45;8;8;5
24012;PMS7003;12220;50.194;18.948;2024-01-07T07:58:48;13;7;4
24012;PMS7003;12220;50.194;18.948;2024-01-07T08:00:54;10;8;5
24012;PMS7003;12220;50.194;18.948;2024-01-07T08:02:56;6;5;4
24012;PMS7003;12220;50.194;18.948;2024-01-07T08:04:57;7;6;5
24012;PMS7003;12220;50.194;18.948;2024-01-07T08:06:58;9;7;6
24012;PMS7003;12220;50.194;18.948;2024-01-07T08:09:09;9;9;6
24012;PMS7003;12220;50.194;18.948;2024-01-07T08:11:11;11;10;7
24012;PMS7003;12220;50.194;18.948;2024-01-07T08:13:15;11;10;6
24012;PMS7003;12220;50.194;18.948;2024-01-07T08:15:16;7;6;5
24012;PMS7003;12220;50.194;18.948;2024-01-07T08:17:24;12;5;2
24012;PMS7003;12220;50.194;18.948;2024-01-07T08:19:26;11;10;7
24012;PMS7003;12220;50.194;18.948;2024-01-07T08:21:27;14;9;7
24012;PMS7003;12220;50.194;18.948;2024-01-07T08:23:31;9;7;5
24012;PMS7003;12220;50.194;18.948;2024-01-07T08:25:39;8;6;5
24012;PMS7003;12220;50.194;18.948;2024-01-07T08:27:42;7;7;5
24012;PMS7003;12220;50.194;18.948;2024-01-07T08:29:44;10;10;8
24012;PMS7003;12220;50.194;18.948;2024-01-07T08:31:47;12;9;6
24012;PMS7003;12220;50.194;18.948;2024-01-07T08:33:55;10;8;7
24012;PMS7003;12220;50.194;18.948;2024-01-07T08:35:56;11;9;7
24012;PMS7003;12220;50.194;18.948;2024-01-07T08:38:19;8;7;6
24012;PMS7003;12220;50.194;18.948;2024-01-07T08:40:20;8;5;4
24012;PMS7003;12220;50.194;18.948;2024-01-07T08:42:22;7;6;5
24012;PMS7003;12220;50.194;18.948;2024-01-07T08:44:34;13;8;4
24012;PMS7003;12220;50.194;18.948;2024-01-07T08:46:36;11;10;6
24012;PMS7003;12220;50.194;18.948;2024-01-07T08:48:37;13;12;8
24012;PMS7003;12220;50.194;18.948;2024-01-07T08:50:39;7;6;5
24012;PMS7003;12220;50.194;18.948;2024-01-07T08:52:49;7;7;5
24012;PMS7003;12220;50.194;18.948;2024-01-07T08:54:51;7;6;5
24012;PMS7003;12220;50.194;18.948;2024-01-07T08:56:52;10;10;6
24012;PMS7003;12220;50.194;18.948;2024-01-07T08:58:53;5;5;4
24012;PMS7003;12220;50.194;18.948;2024-01-07T09:01:04;6;6;4
24012;PMS7003;12220;50.194;18.948;2024-01-07T09:03:09;12;9;7
24012;PMS7003;12220;50.194;18.948;2024-01-07T09:05:11;8;8;6
24012;PMS7003;12220;50.194;18.948;2024-01-07T09:07:15;10;10;7
24012;PMS7003;12220;50.194;18.948;2024-01-07T09:09:20;10;8;5
24012;PMS7003;12220;50.194;18.948;2024-01-07T09:11:21;6;6;5
24012;PMS7003;12220;50.194;18.948;2024-01-07T09:13:22;11;7;6
24012;PMS7003;12220;50.194;18.948;2024-01-07T09:15:25;11;9;6
24012;PMS7003;12220;50.194;18.948;2024-01-07T09:17:35;12;12;8
24012;PMS7003;12220;50.194;18.948;2024-01-07T09:19:38;8;7;4
24012;PMS7003;12220;50.194;18.948;2024-01-07T09:21:42;13;10;5
24012;PMS7003;12220;50.194;18.948;2024-01-07T09:23:44;12;8;6
24012;PMS7003;12220;50.194;18.948;2024-01-07T09:25:50;12;10;7
24012;PMS7003;12220;50.194;18.948;2024-01-07T09:27:51;12;10;7
24012;PMS7003;12220;50.194;18.948;2024-01-07T09:29:53;16;9;8
24012;PMS7003;12220;50.194;18.948;2024-01-07T09:31:54;10;9;6
24012;PMS7003;12220;50.194;18.948;2024-01-07T09:34:05;12;9;6
24012;PMS7003;12220;50.194;18.948;2024-01-07T09:36:07;8;6;5
24012;PMS7003;12220;50.194;18.948;2024-01-07T09:38:09;12;11;7
24012;PMS7003;12220;50.194;18.948;2024-01-07T09:40:17;12;8;5
24012;PMS7003;12220;50.194;18.948;2024-01-07T09:42:22;12;12;8
24012;PMS7003;12220;50.194;18.948;2024-01-07T09:44:23;17;13;8
24012;PMS7003;12220;50.194;18.948;2024-01-07T09:46:28;13;11;9
24012;PMS7003;12220;50.194;18.948;2024-01-07T09:48:32;10;10;7
24012;PMS7003;12220;50.194;18.948;2024-01-07T09:50:35;15;11;8
24012;PMS7003;12220;50.194;18.948;2024-01-07T09:52:41;19;12;8
24012;PMS7003;12220;50.194;18.948;2024-01-07T09:54:45;9;8;6
24012;PMS7003;12220;50.194;18.948;2024-01-07T09:56:55;13;11;6
24012;PMS7003;12220;50.194;18.948;2024-01-07T09:59:02;20;16;10
24012;PMS7003;12220;50.194;18.948;2024-01-07T10:01:12;17;12;7
24012;PMS7003;12220;50.194;18.948;2024-01-07T10:03:14;10;9;7
24012;PMS7003;12220;50.194;18.948;2024-01-07T10:05:16;17;15;11
24012;PMS7003;12220;50.194;18.948;2024-01-07T10:07:17;13;11;8
24012;PMS7003;12220;50.194;18.948;2024-01-07T10:09:32;18;15;8
24012;PMS7003;12220;50.194;18.948;2024-01-07T10:11:37;15;12;10
24012;PMS7003;12220;50.194;18.948;2024-01-07T10:13:39;14;14;10
24012;PMS7003;12220;50.194;18.948;2024-01-07T10:15:40;15;14;7
24012;PMS7003;12220;50.194;18.948;2024-01-07T10:17:44;13;9;6
24012;PMS7003;12220;50.194;18.948;2024-01-07T10:19:49;15;12;6
24012;PMS7003;12220;50.194;18.948;2024-01-07T10:24:10;17;12;8
24012;PMS7003;12220;50.194;18.948;2024-01-07T10:26:12;21;18;11
24012;PMS7003;12220;50.194;18.948;2024-01-07T10:28:21;17;14;9
24012;PMS7003;12220;50.194;18.948;2024-01-07T10:30:22;14;11;8
24012;PMS7003;12220;50.194;18.948;2024-01-07T10:32:24;15;14;10
24012;PMS7003;12220;50.194;18.948;2024-01-07T10:34:25;7;6;4
24012;PMS7003;12220;50.194;18.948;2024-01-07T10:36:36;14;12;8
24012;PMS7003;12220;50.194;18.948;2024-01-07T10:38:38;15;14;9
24012;PMS7003;12220;50.194;18.948;2024-01-07T10:40:41;22;18;11
24012;PMS7003;12220;50.194;18.948;2024-01-07T10:42:45;22;17;11
24012;PMS7003;12220;50.194;18.948;2024-01-07T10:44:51;10;9;4
24012;PMS7003;12220;50.194;18.948;2024-01-07T10:49:11;13;13;9
24012;PMS7003;12220;50.194;18.948;2024-01-07T10:51:22;18;12;8
24012;PMS7003;12220;50.194;18.948;2024-01-07T10:53:25;17;13;11
24012;PMS7003;12220;50.194;18.948;2024-01-07T10:55:35;17;15;9
24012;PMS7003;12220;50.194;18.948;2024-01-07T10:59:50;15;11;8
24012;PMS7003;12220;50.194;18.948;2024-01-07T11:01:55;15;14;9
24012;PMS7003;12220;50.194;18.948;2024-01-07T11:04:14;13;12;7
24012;PMS7003;12220;50.194;18.948;2024-01-07T11:06:23;16;15;10
24012;PMS7003;12220;50.194;18.948;2024-01-07T11:13:10;18;16;10
24012;PMS7003;12220;50.194;18.948;2024-01-07T11:15:44;12;12;7
24012;PMS7003;12220;50.194;18.948;2024-01-07T11:17:50;13;9;6
24012;PMS7003;12220;50.194;18.948;2024-01-07T11:19:50;12;9;8
24012;PMS7003;12220;50.194;18.948;2024-01-07T11:21:52;10;10;6
24012;PMS7003;12220;50.194;18.948;2024-01-07T11:23:53;16;14;10
24012;PMS7003;12220;50.194;18.948;2024-01-07T11:25:58;17;14;9
24012;PMS7003;12220;50.194;18.948;2024-01-07T11:28:12;14;14;7
24012;PMS7003;12220;50.194;18.948;2024-01-07T11:32:22;14;14;8
24012;PMS7003;12220;50.194;18.948;2024-01-07T11:36:50;14;12;7
24012;PMS7003;12220;50.194;18.948;2024-01-07T11:38:51;14;11;8
24012;PMS7003;12220;50.194;18.948;2024-01-07T11:40:55;16;14;9
24012;PMS7003;12220;50.194;18.948;2024-01-07T11:42:59;12;10;7
24012;PMS7003;12220;50.194;18.948;2024-01-07T11:45:03;12;11;9
24012;PMS7003;12220;50.194;18.948;2024-01-07T11:47:11;15;12;8
24012;PMS7003;12220;50.194;18.948;2024-01-07T11:49:12;20;17;11
24012;PMS7003;12220;50.194;18.948;2024-01-07T11:51:16;8;8;5
24012;PMS7003;12220;50.194;18.948;2024-01-07T11:53:18;13;13;8
24012;PMS7003;12220;50.194;18.948;2024-01-07T11:55:19;14;12;8
24012;PMS7003;12220;50.194;18.948;2024-01-07T11:57:25;10;8;7
24012;PMS7003;12220;50.194;18.948;2024-01-07T11:59:26;18;18;11
24012;PMS7003;12220;50.194;18.948;2024-01-07T12:01:28;12;11;9
24012;PMS7003;12220;50.194;18.948;2024-01-07T12:03:36;19;13;8
24012;PMS7003;12220;50.194;18.948;2024-01-07T12:05:44;10;9;6
24012;PMS7003;12220;50.194;18.948;2024-01-07T12:10:01;19;14;8
24012;PMS7003;12220;50.194;18.948;2024-01-07T12:12:05;16;14;8
24012;PMS7003;12220;50.194;18.948;2024-01-07T12:16:24;17;16;12
24012;PMS7003;12220;50.194;18.948;2024-01-07T12:18:29;17;12;8
24012;PMS7003;12220;50.194;18.948;2024-01-07T12:20:31;9;6;4
24012;PMS7003;12220;50.194;18.948;2024-01-07T12:22:32;15;13;10
24012;PMS7003;12220;50.194;18.948;2024-01-07T12:24:37;13;13;9
24012;PMS7003;12220;50.194;18.948;2024-01-07T12:26:38;20;16;11
24012;PMS7003;12220;50.194;18.948;2024-01-07T12:28:44;15;13;8
24012;PMS7003;12220;50.194;18.948;2024-01-07T12:30:49;16;13;8
24012;PMS7003;12220;50.194;18.948;2024-01-07T12:32:52;16;15;10
24012;PMS7003;12220;50.194;18.948;2024-01-07T12:34:58;18;17;10
24012;PMS7003;12220;50.194;18.948;2024-01-07T12:37:03;12;11;8
24012;PMS7003;12220;50.194;18.948;2024-01-07T12:39:04;12;11;7
24012;PMS7003;12220;50.194;18.948;2024-01-07T12:41:11;10;10;7
24012;PMS7003;12220;50.194;18.948;2024-01-07T12:43:13;16;12;8
24012;PMS7003;12220;50.194;18.948;2024-01-07T12:45:17;11;10;5
24012;PMS7003;12220;50.194;18.948;2024-01-07T12:47:19;13;12;9
24012;PMS7003;12220;50.194;18.948;2024-01-07T12:49:23;12;12;8
24012;PMS7003;12220;50.194;18.948;2024-01-07T12:51:24;15;15;11
24012;PMS7003;12220;50.194;18.948;2024-01-07T12:53:26;13;11;9
24012;PMS7003;12220;50.194;18.948;2024-01-07T12:55:29;13;12;9
24012;PMS7003;12220;50.194;18.948;2024-01-07T12:57:38;13;10;5
24012;PMS7003;12220;50.194;18.948;2024-01-07T12:59:40;14;12;7
24012;PMS7003;12220;50.194;18.948;2024-01-07T13:01:42;14;14;9
24012;PMS7003;12220;50.194;18.948;2024-01-07T13:03:44;17;13;9
24012;PMS7003;12220;50.194;18.948;2024-01-07T13:05:53;16;13;10
24012;PMS7003;12220;50.194;18.948;2024-01-07T13:07:54;19;14;10
24012;PMS7003;12220;50.194;18.948;2024-01-07T13:09:56;20;17;13
24012;PMS7003;12220;50.194;18.948;2024-01-07T13:11:57;14;14;10
24012;PMS7003;12220;50.194;18.948;2024-01-07T13:14:08;18;12;11
24012;PMS7003;12220;50.194;18.948;2024-01-07T13:16:10;24;18;12
24012;PMS7003;12220;50.194;18.948;2024-01-07T13:18:12;22;17;11
24012;PMS7003;12220;50.194;18.948;2024-01-07T13:20:13;19;16;10
24012;PMS7003;12220;50.194;18.948;2024-01-07T13:22:23;13;12;9
24012;PMS7003;12220;50.194;18.948;2024-01-07T13:24:25;17;16;13
24012;PMS7003;12220;50.194;18.948;2024-01-07T13:26:26;21;17;10
24012;PMS7003;12220;50.194;18.948;2024-01-07T13:28:28;15;15;10
24012;PMS7003;12220;50.194;18.948;2024-01-07T13:30:39;17;10;8
24012;PMS7003;12220;50.194;18.948;2024-01-07T13:32:41;22;19;11
24012;PMS7003;12220;50.194;18.948;2024-01-07T13:34:42;24;21;14
24012;PMS7003;12220;50.194;18.948;2024-01-07T13:36:44;24;16;11
24012;PMS7003;12220;50.194;18.948;2024-01-07T13:38:57;15;15;7
24012;PMS7003;12220;50.194;18.948;2024-01-07T13:41:01;17;15;11
24012;PMS7003;12220;50.194;18.948;2024-01-07T13:45:14;19;19;12
24012;PMS7003;12220;50.194;18.948;2024-01-07T13:47:25;16;14;8
24012;PMS7003;12220;50.194;18.948;2024-01-07T13:49:31;24;20;13